Time;durP1;ratioP1;P1;durP2;ratioP2;P2;SDS_P1;SDS_P2;PMS_P1;PMS_P2;Temp;Humidity;BMP_temperature;BMP_pressure;BME280_temperature;BME280_humidity;BME280_pressure;Samples;Min_cycle;Max_cycle;Signal;HPM_P1;HPM_P2
2023/07/22 00:01:25;;;;;;;8.70;4.90;;;;;;;16.67;96.75;101321.78;4917557;28;20056;-61
2023/07/22 00:03:52;;;;;;;10.13;5.22;;;;;;;16.64;99.01;101319.47;4930390;29;20047;-62
2023/07/22 00:06:19;;;;;;;7.32;4.63;;;;;;;16.58;99.43;101321.00;4929967;29;20130;-63
2023/07/22 00:08:45;;;;;;;10.10;5.68;;;;;;;16.54;100.00;101325.00;4922309;28;20106;-62
2023/07/22 00:11:11;;;;;;;8.32;5.13;;;;;;;16.47;100.00;101324.88;4926699;29;20914;-61
2023/07/22 00:13:38;;;;;;;8.10;5.45;;;;;;;16.41;100.00;101322.91;4908106;29;20048;-62
2023/07/22 00:16:04;;;;;;;9.45;5.32;;;;;;;16.39;100.00;101328.38;4928912;29;20103;-62
2023/07/22 00:18:32;;;;;;;9.80;5.88;;;;;;;16.38;100.00;101323.25;4924119;29;20579;-62
2023/07/22 00:20:58;;;;;;;10.13;6.05;;;;;;;16.31;100.00;101320.47;4927437;29;20512;-62
2023/07/22 00:23:25;;;;;;;9.15;5.65;;;;;;;16.26;100.00;101319.34;4930259;29;20058;-62
2023/07/22 00:25:51;;;;;;;8.38;5.70;;;;;;;16.19;100.00;101314.72;4911347;29;20111;-62
2023/07/22 00:28:18;;;;;;;10.98;5.80;;;;;;;16.18;100.00;101309.59;4924150;29;20134;-61
2023/07/22 00:30:45;;;;;;;8.93;5.28;;;;;;;16.15;100.00;101304.66;4921050;29;20134;-62
2023/07/22 00:33:12;;;;;;;10.30;6.40;;;;;;;16.09;100.00;101308.81;4926474;29;20051;-62
2023/07/22 00:35:39;;;;;;;9.37;6.20;;;;;;;16.08;100.00;101304.50;4920535;29;20055;-62
2023/07/22 00:38:05;;;;;;;11.60;5.93;;;;;;;16.04;100.00;101299.75;4929670;29;20083;-63
2023/07/22 00:40:32;;;;;;;10.48;6.05;;;;;;;16.02;100.00;101308.66;4927745;29;20127;-61
2023/07/22 00:42:59;;;;;;;12.48;6.03;;;;;;;15.97;100.00;101302.22;4914759;29;20439;-62
2023/07/22 00:45:26;;;;;;;8.48;5.55;;;;;;;15.90;100.00;101307.38;4926979;29;20052;-62
2023/07/22 00:47:52;;;;;;;11.35;6.78;;;;;;;15.89;100.00;101296.97;4920888;29;20083;-61
2023/07/22 00:50:19;;;;;;;11.30;6.28;;;;;;;15.84;100.00;101296.63;4926558;29;20059;-62
2023/07/22 00:52:45;;;;;;;10.98;5.75;;;;;;;15.79;100.00;101295.31;4922559;29;20058;-62
2023/07/22 00:55:13;;;;;;;10.43;6.15;;;;;;;15.77;100.00;101296.50;4921366;29;20152;-62
2023/07/22 00:57:39;;;;;;;11.77;6.22;;;;;;;15.79;100.00;101297.97;4924236;29;20162;-62
2023/07/22 01:00:11;;;;;;;12.18;6.47;;;;;;;15.80;100.00;101294.34;4901799;29;20087;-62
2023/07/22 01:02:41;;;;;;;10.38;6.65;;;;;;;15.77;100.00;101293.84;4925873;29;20052;-64
2023/07/22 01:05:10;;;;;;;11.05;6.85;;;;;;;15.76;100.00;101297.50;4928924;29;20134;-66
2023/07/22 01:07:38;;;;;;;12.00;7.15;;;;;;;15.80;100.00;101290.88;4925409;29;20497;-66
2023/07/22 01:10:05;;;;;;;10.23;6.68;;;;;;;15.88;100.00;101293.50;4917937;29;20052;-65
2023/07/22 01:12:32;;;;;;;10.25;6.63;;;;;;;15.94;100.00;101292.81;4926910;29;20130;-64
2023/07/22 01:14:58;;;;;;;10.50;6.57;;;;;;;15.96;100.00;101290.81;4924116;28;20079;-65
2023/07/22 01:17:25;;;;;;;10.77;6.60;;;;;;;15.94;100.00;101279.59;4924298;29;20074;-65
2023/07/22 01:19:56;;;;;;;11.35;7.28;;;;;;;15.94;100.00;101284.88;4923195;29;20424;-65
2023/07/22 01:22:23;;;;;;;12.10;7.60;;;;;;;15.97;100.00;101281.06;4915357;29;20067;-65
2023/07/22 01:24:50;;;;;;;12.20;7.75;;;;;;;15.95;100.00;101275.13;4915859;29;20138;-64
2023/07/22 01:27:17;;;;;;;10.43;6.83;;;;;;;16.00;100.00;101286.03;4923468;29;20527;-65
2023/07/22 01:29:44;;;;;;;12.02;7.05;;;;;;;15.98;100.00;101277.44;4925050;29;20150;-64
2023/07/22 01:32:10;;;;;;;12.90;7.70;;;;;;;15.94;100.00;101274.31;4929024;29;20135;-65
2023/07/22 01:34:37;;;;;;;11.27;7.35;;;;;;;15.97;100.00;101275.78;4927183;28;20111;-65
2023/07/22 01:37:04;;;;;;;12.63;8.00;;;;;;;16.02;100.00;101274.25;4918386;29;20054;-65
2023/07/22 01:39:31;;;;;;;14.68;8.60;;;;;;;16.05;100.00;101272.28;4919135;29;20083;-64
2023/07/22 01:41:57;;;;;;;12.90;8.50;;;;;;;16.09;100.00;101277.06;4925832;29;20054;-65
2023/07/22 01:44:24;;;;;;;13.95;9.02;;;;;;;16.10;100.00;101275.25;4920914;29;20146;-65
2023/07/22 01:46:50;;;;;;;14.43;8.77;;;;;;;16.06;100.00;101272.09;4925169;29;20071;-63
2023/07/22 01:49:17;;;;;;;14.85;9.02;;;;;;;16.08;100.00;101278.06;4921473;29;20047;-64
2023/07/22 01:51:44;;;;;;;16.08;9.13;;;;;;;16.06;100.00;101269.47;4916758;29;20134;-65
2023/07/22 01:54:10;;;;;;;15.38;9.32;;;;;;;16.02;100.00;101270.81;4926405;29;20059;-64
2023/07/22 01:56:37;;;;;;;14.38;8.73;;;;;;;16.00;100.00;101262.22;4919472;29;20051;-64
2023/07/22 01:59:04;;;;;;;15.00;9.35;;;;;;;15.94;100.00;101265.53;4924597;29;20048;-65
2023/07/22 02:01:31;;;;;;;15.00;9.20;;;;;;;15.93;100.00;101269.19;4921470;29;20425;-64
2023/07/22 02:03:58;;;;;;;13.63;8.70;;;;;;;15.86;100.00;101270.84;4922857;29;20058;-66
2023/07/22 02:06:26;;;;;;;13.93;8.43;;;;;;;15.84;100.00;101271.03;4920883;29;20058;-65
2023/07/22 02:08:54;;;;;;;;;;;;;;;15.81;100.00;101274.00;4916870;28;20043;-65
2023/07/22 02:11:21;;;;;;;14.45;8.65;;;;;;;15.76;100.00;101266.59;4926649;29;19933;-64
2023/07/22 02:13:47;;;;;;;16.02;9.07;;;;;;;15.76;100.00;101271.06;4916842;29;20413;-63
2023/07/22 02:16:14;;;;;;;14.60;8.98;;;;;;;15.73;100.00;101268.75;4927979;29;20055;-64
2023/07/22 02:18:40;;;;;;;15.18;9.23;;;;;;;15.70;100.00;101263.75;4910238;29;20047;-65
2023/07/22 02:21:07;;;;;;;16.02;9.98;;;;;;;15.68;100.00;101263.94;4922207;29;20055;-65
2023/07/22 02:23:33;;;;;;;17.33;10.02;;;;;;;15.63;100.00;101256.50;4926627;29;20091;-65
2023/07/22 02:26:01;;;;;;;18.02;10.18;;;;;;;15.60;100.00;101258.66;4918958;29;20047;-65
2023/07/22 02:28:28;;;;;;;17.53;11.03;;;;;;;15.58;100.00;101260.63;4925014;29;20063;-65
2023/07/22 02:30:54;;;;;;;17.20;10.75;;;;;;;15.56;100.00;101255.53;4918689;29;20381;-66
2023/07/22 02:33:22;;;;;;;18.05;10.88;;;;;;;15.59;100.00;101255.19;4924125;29;20420;-65
2023/07/22 02:35:49;;;;;;;15.10;10.18;;;;;;;15.59;100.00;101249.91;4924907;28;20159;-65
2023/07/22 02:38:15;;;;;;;20.33;11.50;;;;;;;15.61;100.00;101252.38;4931981;29;20058;-65
2023/07/22 02:40:42;;;;;;;15.95;10.25;;;;;;;15.55;100.00;101253.88;4927704;29;20052;-67
2023/07/22 02:43:08;;;;;;;16.10;10.43;;;;;;;15.57;100.00;101259.00;4924320;29;20056;-66
2023/07/22 02:45:36;;;;;;;18.33;11.68;;;;;;;15.57;100.00;101246.59;4919855;29;20055;-66
2023/07/22 02:48:03;;;;;;;16.17;10.40;;;;;;;15.60;100.00;101245.44;4917823;29;20051;-64
2023/07/22 02:50:30;;;;;;;16.48;11.07;;;;;;;15.55;100.00;101253.06;4930701;29;20051;-65
2023/07/22 02:52:56;;;;;;;16.08;10.65;;;;;;;15.52;100.00;101253.38;4922665;29;20453;-65
2023/07/22 02:55:23;;;;;;;18.27;11.07;;;;;;;15.47;100.00;101251.25;4933628;29;20141;-66
2023/07/22 02:57:50;;;;;;;16.63;10.68;;;;;;;15.42;100.00;101253.56;4928466;29;20052;-64
2023/07/22 03:00:23;;;;;;;19.73;11.40;;;;;;;15.37;100.00;101254.06;4922108;29;20047;-65
2023/07/22 03:02:52;;;;;;;15.93;10.60;;;;;;;15.37;100.00;101261.19;4925660;29;20060;-65
2023/07/22 03:05:19;;;;;;;19.52;11.55;;;;;;;15.34;100.00;101253.56;4917988;29;20102;-66
2023/07/22 03:07:46;;;;;;;17.42;11.10;;;;;;;15.32;100.00;101252.91;4926204;29;20063;-65
2023/07/22 03:10:12;;;;;;;17.70;10.85;;;;;;;15.31;100.00;101259.19;4922652;28;20107;-65
2023/07/22 03:12:39;;;;;;;17.55;11.05;;;;;;;15.27;100.00;101258.72;4929192;29;20159;-66
2023/07/22 03:15:08;;;;;;;18.95;11.10;;;;;;;15.26;100.00;101258.88;4924713;29;20078;-65
2023/07/22 03:17:36;;;;;;;20.52;11.43;;;;;;;15.20;100.00;101252.44;4921091;29;20692;-65
2023/07/22 03:20:19;;;;;;;18.38;11.20;;;;;;;15.19;100.00;101261.34;4927497;29;20485;-65
2023/07/22 03:22:46;;;;;;;19.92;11.35;;;;;;;15.16;100.00;101259.88;4924123;29;20626;-65
2023/07/22 03:25:14;;;;;;;16.88;10.98;;;;;;;15.14;100.00;101261.84;4930398;29;20074;-65
2023/07/22 03:27:41;;;;;;;18.52;11.02;;;;;;;15.09;100.00;101263.31;4920780;29;20054;-65
2023/07/22 03:30:08;;;;;;;16.63;10.35;;;;;;;15.07;100.00;101268.78;4927371;29;20048;-65
2023/07/22 03:32:34;;;;;;;15.88;10.63;;;;;;;15.04;100.00;101263.84;4906680;29;20048;-65
2023/07/22 03:35:01;;;;;;;20.63;11.40;;;;;;;15.00;100.00;101258.06;4928053;29;20055;-65
2023/07/22 03:37:28;;;;;;;21.75;11.98;;;;;;;14.98;100.00;101262.69;4922784;29;20048;-65
2023/07/22 03:39:55;;;;;;;19.55;11.32;;;;;;;14.97;100.00;101271.56;4920661;29;20095;-65
2023/07/22 03:42:22;;;;;;;19.15;11.95;;;;;;;14.96;100.00;101266.47;4925678;29;20055;-64
2023/07/22 03:44:48;;;;;;;17.10;11.43;;;;;;;14.93;100.00;101274.72;4914235;29;20134;-64
2023/07/22 03:47:14;;;;;;;20.60;12.27;;;;;;;14.89;100.00;101262.84;4926076;29;20560;-65
2023/07/22 03:49:41;;;;;;;19.88;11.20;;;;;;;14.88;100.00;101267.28;4928473;29;20056;-64
2023/07/22 03:52:07;;;;;;;18.73;11.20;;;;;;;14.87;100.00;101260.34;4925061;29;20083;-66
2023/07/22 03:54:34;;;;;;;18.60;11.30;;;;;;;14.84;100.00;101265.97;4926693;29;20082;-65
2023/07/22 03:57:01;;;;;;;16.33;10.68;;;;;;;14.86;100.00;101265.78;4916882;29;20103;-66
2023/07/22 03:59:28;;;;;;;19.98;11.27;;;;;;;14.85;100.00;101264.97;4925524;29;20453;-64
2023/07/22 04:01:55;;;;;;;18.35;11.43;;;;;;;14.87;100.00;101264.81;4924807;29;20051;-65
2023/07/22 04:04:21;;;;;;;18.67;11.90;;;;;;;14.82;100.00;101273.25;4926357;29;20055;-66
2023/07/22 04:06:48;;;;;;;20.23;11.95;;;;;;;14.81;100.00;101271.56;4927292;29;20043;-65
2023/07/22 04:09:14;;;;;;;18.30;11.38;;;;;;;14.83;100.00;101267.75;4902452;29;20524;-65
2023/07/22 04:11:40;;;;;;;17.70;11.27;;;;;;;14.86;100.00;101269.28;4922518;29;20059;-65
2023/07/22 04:14:07;;;;;;;20.40;11.60;;;;;;;14.86;100.00;101269.28;4922636;29;20138;-65
2023/07/22 04:16:34;;;;;;;19.02;11.02;;;;;;;14.85;100.00;101269.44;4928836;29;20055;-64
2023/07/22 04:19:01;;;;;;;23.35;11.57;;;;;;;14.82;100.00;101263.50;4923370;29;20066;-66
2023/07/22 04:21:27;;;;;;;22.40;12.05;;;;;;;14.87;100.00;101270.91;4929634;29;20075;-66
2023/07/22 04:23:54;;;;;;;18.23;10.60;;;;;;;14.92;100.00;101273.91;4920879;29;20060;-65
2023/07/22 04:26:20;;;;;;;23.88;13.05;;;;;;;14.90;100.00;101269.78;4912371;29;20094;-66
2023/07/22 04:28:47;;;;;;;21.88;11.18;;;;;;;14.94;100.00;101274.56;4925592;29;20055;-66
2023/07/22 04:31:13;;;;;;;22.83;12.40;;;;;;;14.95;100.00;101268.28;4919941;29;20065;-65
2023/07/22 04:33:41;;;;;;;24.85;11.77;;;;;;;15.01;100.00;101272.06;4930679;29;20059;-65
2023/07/22 04:36:08;;;;;;;23.85;11.90;;;;;;;15.00;100.00;101267.81;4921782;29;20577;-65
2023/07/22 04:38:34;;;;;;;21.92;11.68;;;;;;;15.05;100.00;101262.00;4917639;29;20505;-65
2023/07/22 04:41:04;;;;;;;23.02;12.30;;;;;;;15.10;100.00;101272.91;4908886;29;20595;-66
2023/07/22 04:43:31;;;;;;;21.33;12.55;;;;;;;15.12;100.00;101273.59;4918318;29;20541;-65
2023/07/22 04:45:57;;;;;;;22.08;13.35;;;;;;;15.06;100.00;101266.31;4925357;29;20676;-65
2023/07/22 04:48:24;;;;;;;27.90;14.48;;;;;;;15.06;100.00;101261.84;4919337;29;20052;-66
2023/07/22 04:50:51;;;;;;;25.27;14.43;;;;;;;15.01;100.00;101262.34;4923594;29;20055;-65
2023/07/22 04:53:18;;;;;;;26.15;13.90;;;;;;;15.00;100.00;101254.59;4911012;29;20059;-65
2023/07/22 04:55:44;;;;;;;26.60;14.82;;;;;;;14.97;100.00;101262.84;4926839;29;20059;-64
2023/07/22 04:58:11;;;;;;;26.98;13.55;;;;;;;14.98;100.00;101273.25;4927954;29;20059;-64
2023/07/22 05:00:37;;;;;;;26.48;14.32;;;;;;;14.98;100.00;101273.25;4922532;29;20521;-64
2023/07/22 05:03:05;;;;;;;25.98;14.15;;;;;;;14.96;100.00;101280.50;4928830;29;20074;-65
2023/07/22 05:05:32;;;;;;;25.95;13.70;;;;;;;14.97;100.00;101286.59;4915483;28;20511;-64
2023/07/22 05:07:59;;;;;;;24.95;13.93;;;;;;;14.98;100.00;101286.44;4926289;29;20051;-65
2023/07/22 05:10:25;;;;;;;25.25;14.82;;;;;;;14.98;100.00;101275.88;4921322;29;20489;-64
2023/07/22 05:12:52;;;;;;;24.40;13.23;;;;;;;15.01;100.00;101283.50;4929369;29;20090;-65
2023/07/22 05:15:18;;;;;;;25.90;14.02;;;;;;;15.07;100.00;101287.25;4925262;29;20099;-64
2023/07/22 05:17:45;;;;;;;27.70;14.85;;;;;;;15.09;100.00;101289.75;4921644;29;20580;-64
2023/07/22 05:20:12;;;;;;;28.23;14.93;;;;;;;15.18;100.00;101283.47;4923502;29;20496;-64
2023/07/22 05:22:40;;;;;;;27.05;14.63;;;;;;;15.20;100.00;101281.50;4917400;29;20063;-65
2023/07/22 05:25:07;;;;;;;27.42;15.77;;;;;;;15.23;100.00;101287.28;4928754;29;20163;-65
2023/07/22 05:27:34;;;;;;;28.40;13.80;;;;;;;15.33;100.00;101281.00;4921253;29;20098;-65
2023/07/22 05:30:00;;;;;;;29.15;15.25;;;;;;;15.35;100.00;101279.84;4922709;29;20047;-65
2023/07/22 05:32:30;;;;;;;28.95;15.88;;;;;;;15.41;100.00;101281.81;4928801;29;20062;-65
2023/07/22 05:35:01;;;;;;;25.02;14.77;;;;;;;15.42;100.00;101280.00;4915528;29;20056;-65
2023/07/22 05:37:28;;;;;;;29.90;16.45;;;;;;;15.39;100.00;101280.34;4926738;29;20120;-65
2023/07/22 05:39:54;;;;;;;27.52;15.20;;;;;;;15.51;100.00;101278.19;4912029;29;20606;-65
2023/07/22 05:42:21;;;;;;;28.40;15.82;;;;;;;15.50;100.00;101285.25;4928068;29;20548;-65
2023/07/22 05:44:48;;;;;;;27.08;15.02;;;;;;;15.57;100.00;101293.38;4920492;29;20142;-65
2023/07/22 05:47:14;;;;;;;25.60;14.65;;;;;;;15.60;100.00;101287.72;4917590;29;20136;-66
2023/07/22 05:49:44;;;;;;;28.98;15.65;;;;;;;15.61;100.00;101278.81;4924248;29;20058;-65
2023/07/22 05:52:10;;;;;;;26.15;15.93;;;;;;;15.50;100.00;101279.97;4918682;29;20052;-65
2023/07/22 05:54:37;;;;;;;30.30;15.38;;;;;;;15.45;100.00;101284.97;4927041;29;20060;-66
2023/07/22 05:57:04;;;;;;;32.03;16.52;;;;;;;15.37;100.00;101288.44;4904502;29;20564;-65
2023/07/22 05:59:31;;;;;;;26.55;15.90;;;;;;;15.34;100.00;101283.47;4928773;29;20207;-66
2023/07/22 06:01:57;;;;;;;29.80;16.20;;;;;;;15.41;100.00;101281.00;4910882;28;20058;-65
2023/07/22 06:04:24;;;;;;;26.08;14.73;;;;;;;15.46;100.00;101275.22;4922394;29;20056;-66
2023/07/22 06:06:50;;;;;;;25.05;15.40;;;;;;;15.63;100.00;101269.72;4925329;29;20056;-66
2023/07/22 06:09:17;;;;;;;25.15;15.50;;;;;;;15.75;100.00;101272.03;4915448;29;20168;-66
2023/07/22 06:11:44;;;;;;;28.45;15.48;;;;;;;15.87;100.00;101267.22;4925315;29;20062;-65
2023/07/22 06:14:10;;;;;;;34.80;16.10;;;;;;;16.04;100.00;101274.09;4921223;28;20572;-65
2023/07/22 06:16:37;;;;;;;25.35;14.77;;;;;;;16.16;100.00;101275.38;4918614;29;20131;-65
2023/07/22 06:19:04;;;;;;;25.35;14.70;;;;;;;16.29;100.00;101268.69;4921634;29;20044;-66
2023/07/22 06:21:30;;;;;;;24.63;14.88;;;;;;;16.32;100.00;101257.75;4928487;29;20047;-67
2023/07/22 06:23:56;;;;;;;28.50;16.55;;;;;;;16.29;100.00;101264.25;4925863;29;20090;-65
2023/07/22 06:26:23;;;;;;;28.85;16.08;;;;;;;16.19;100.00;101263.59;4921960;29;20051;-65
2023/07/22 06:28:49;;;;;;;27.52;14.77;;;;;;;16.26;100.00;101280.44;4913499;29;20354;-64
2023/07/22 06:31:18;;;;;;;26.50;15.55;;;;;;;16.23;100.00;101280.81;4920275;29;20424;-65
2023/07/22 06:33:44;;;;;;;24.13;15.25;;;;;;;16.25;100.00;101275.31;4928905;29;20052;-65
2023/07/22 06:36:11;;;;;;;29.63;16.35;;;;;;;16.32;100.00;101277.09;4920834;29;20052;-66
2023/07/22 06:38:37;;;;;;;28.25;16.13;;;;;;;16.28;100.00;101272.34;4928168;29;20059;-64
2023/07/22 06:41:04;;;;;;;29.33;15.90;;;;;;;16.35;100.00;101270.66;4923042;29;20051;-65
2023/07/22 06:43:30;;;;;;;25.95;14.60;;;;;;;16.43;100.00;101269.81;4918108;28;20115;-65
2023/07/22 06:45:57;;;;;;;26.45;13.65;;;;;;;16.55;100.00;101271.88;4920842;29;20427;-64
2023/07/22 06:48:23;;;;;;;30.08;15.40;;;;;;;16.68;100.00;101273.94;4920552;29;20056;-64
2023/07/22 06:50:50;;;;;;;26.27;15.05;;;;;;;16.76;100.00;101268.59;4924694;29;20054;-65
2023/07/22 06:53:17;;;;;;;27.27;15.57;;;;;;;16.77;100.00;101264.94;4918099;29;20048;-65
2023/07/22 06:55:51;;;;;;;27.88;15.02;;;;;;;16.81;100.00;101265.41;4917745;29;20143;-63
2023/07/22 06:58:19;;;;;;;21.95;14.02;;;;;;;16.90;100.00;101267.03;4923995;29;20052;-64
2023/07/22 07:00:46;;;;;;;26.23;15.45;;;;;;;16.90;100.00;101268.88;4919231;29;20493;-67
2023/07/22 07:03:12;;;;;;;24.17;14.18;;;;;;;16.92;100.00;101272.97;4928915;29;20130;-65
2023/07/22 07:05:42;;;;;;;27.83;15.23;;;;;;;16.99;100.00;101267.78;4915212;29;20429;-64
2023/07/22 07:08:10;;;;;;;26.25;13.75;;;;;;;17.14;100.00;101267.84;4922570;29;20047;-63
2023/07/22 07:10:39;;;;;;;26.77;13.57;;;;;;;17.14;100.00;101267.84;4911369;29;20805;-66
2023/07/22 07:13:05;;;;;;;27.50;13.80;;;;;;;17.16;100.00;101264.00;4925508;29;20051;-65
2023/07/22 07:15:32;;;;;;;26.52;14.35;;;;;;;17.17;100.00;101260.34;4927622;29;20408;-65
2023/07/22 07:17:58;;;;;;;24.80;13.82;;;;;;;17.13;100.00;101256.41;4920405;29;20142;-65
2023/07/22 07:20:25;;;;;;;23.40;14.10;;;;;;;17.15;100.00;101257.06;4923334;29;20135;-66
2023/07/22 07:22:51;;;;;;;24.50;14.07;;;;;;;17.27;100.00;101264.56;4920763;28;20051;-65
2023/07/22 07:25:18;;;;;;;30.25;13.20;;;;;;;17.35;100.00;101261.84;4929801;29;20170;-65
2023/07/22 07:27:44;;;;;;;26.05;13.90;;;;;;;17.38;100.00;101256.19;4921565;29;20052;-64
2023/07/22 07:30:11;;;;;;;21.17;11.90;;;;;;;17.48;100.00;101258.56;4929460;29;20162;-65
2023/07/22 07:32:37;;;;;;;24.60;13.23;;;;;;;17.60;100.00;101265.06;4930704;29;20531;-65
2023/07/22 07:35:05;;;;;;;23.80;13.32;;;;;;;17.68;100.00;101261.50;4915604;29;20051;-65
2023/07/22 07:37:32;;;;;;;20.48;13.05;;;;;;;17.79;100.00;101258.41;4920574;29;20060;-66
2023/07/22 07:39:59;;;;;;;22.20;13.20;;;;;;;17.75;100.00;101257.94;4921434;28;20059;-66
2023/07/22 07:42:29;;;;;;;21.50;12.10;;;;;;;17.96;100.00;101251.94;4926974;29;20065;-66
2023/07/22 07:44:57;;;;;;;21.48;12.80;;;;;;;17.99;100.00;101258.69;4907743;29;20051;-65
2023/07/22 07:47:24;;;;;;;20.67;12.10;;;;;;;18.06;100.00;101248.19;4927224;29;20087;-65
2023/07/22 07:49:51;;;;;;;19.77;10.30;;;;;;;18.10;100.00;101246.78;4924962;29;20061;-65
2023/07/22 07:52:18;;;;;;;25.30;13.30;;;;;;;18.13;100.00;101243.75;4916109;29;20056;-65
2023/07/22 07:54:44;;;;;;;21.33;12.10;;;;;;;18.18;100.00;101246.69;4927104;29;20139;-65
2023/07/22 07:57:11;;;;;;;18.73;11.02;;;;;;;18.18;100.00;101252.81;4924403;29;20048;-65
2023/07/22 07:59:37;;;;;;;17.63;11.43;;;;;;;18.26;100.00;101249.22;4928269;29;20051;-65
2023/07/22 08:02:09;;;;;;;16.63;10.60;;;;;;;18.30;100.00;101250.50;4925585;28;20146;-64
2023/07/22 08:04:35;;;;;;;20.45;12.32;;;;;;;18.36;98.48;101255.06;4921420;29;20052;-63
2023/07/22 08:07:04;;;;;;;18.00;10.75;;;;;;;18.49;99.80;101243.78;4924886;29;20108;-64
2023/07/22 08:09:30;;;;;;;19.52;10.68;;;;;;;18.67;100.00;101250.50;4920863;29;20288;-65
2023/07/22 08:11:57;;;;;;;16.70;11.10;;;;;;;18.78;100.00;101248.16;4931465;29;20043;-65
2023/07/22 08:14:24;;;;;;;18.63;10.50;;;;;;;18.77;96.15;101248.34;4928807;28;20450;-65
2023/07/22 08:16:50;;;;;;;19.85;11.07;;;;;;;18.87;95.68;101245.38;4924624;29;20047;-65
2023/07/22 08:19:17;;;;;;;18.52;11.85;;;;;;;18.82;94.71;101256.59;4916264;29;20130;-65
2023/07/22 08:21:43;;;;;;;19.60;10.73;;;;;;;18.74;95.07;101252.19;4927892;29;20051;-64
2023/07/22 08:24:10;;;;;;;21.02;11.25;;;;;;;18.84;93.79;101254.56;4928729;29;20056;-66
2023/07/22 08:26:36;;;;;;;19.00;9.63;;;;;;;18.82;94.49;101259.25;4924174;29;20138;-65
2023/07/22 08:29:03;;;;;;;15.25;9.55;;;;;;;18.97;93.17;101256.50;4925489;29;20056;-65
2023/07/22 08:31:29;;;;;;;18.60;10.88;;;;;;;19.05;93.46;101256.41;4919194;29;20058;-65
2023/07/22 08:33:59;;;;;;;17.52;10.30;;;;;;;18.99;91.48;101262.44;4926725;29;20054;-64
2023/07/22 08:36:25;;;;;;;16.27;8.85;;;;;;;18.99;91.61;101265.13;4912472;29;20139;-65
2023/07/22 08:38:52;;;;;;;14.13;9.15;;;;;;;19.15;91.34;101264.03;4924955;29;20159;-64
2023/07/22 08:41:19;;;;;;;17.33;9.63;;;;;;;19.14;91.82;101255.22;4927264;29;20520;-65
2023/07/22 08:43:47;;;;;;;15.07;9.77;;;;;;;19.33;91.54;101256.41;4922822;29;20080;-66
2023/07/22 08:46:15;;;;;;;18.15;9.95;;;;;;;19.40;89.99;101252.97;4920345;29;20063;-65
2023/07/22 08:48:46;;;;;;;16.77;8.90;;;;;;;19.41;89.98;101251.97;4916916;29;20134;-65
2023/07/22 08:51:16;;;;;;;16.05;10.32;;;;;;;19.39;86.92;101262.78;4927378;29;20047;-65
2023/07/22 08:53:44;;;;;;;20.25;10.55;;;;;;;19.34;88.57;101259.88;4922425;29;20532;-64
2023/07/22 08:56:25;;;;;;;16.90;9.77;;;;;;;19.26;88.91;101247.53;4925097;29;20059;-65
2023/07/22 08:58:55;;;;;;;17.00;9.38;;;;;;;19.33;89.36;101253.75;4922629;29;20075;-66
2023/07/22 09:01:23;;;;;;;18.13;10.00;;;;;;;19.30;88.67;101245.31;4919302;29;20499;-66
2023/07/22 09:03:53;;;;;;;15.68;9.25;;;;;;;19.28;86.52;101250.00;4926239;29;20047;-63
2023/07/22 09:06:20;;;;;;;18.52;9.80;;;;;;;19.36;87.63;101248.00;4934505;28;20051;-62
2023/07/22 09:08:48;;;;;;;15.15;9.15;;;;;;;19.40;85.19;101255.63;4932692;29;20054;-63
2023/07/22 09:11:15;;;;;;;13.63;8.85;;;;;;;19.47;82.45;101256.50;4922084;29;20536;-63
2023/07/22 09:13:45;;;;;;;14.48;8.75;;;;;;;19.47;82.75;101251.19;4922537;29;20135;-68
2023/07/22 09:16:12;;;;;;;12.35;7.60;;;;;;;19.64;84.09;101259.66;4922844;29;20047;-67
2023/07/22 09:18:39;;;;;;;16.40;7.35;;;;;;;19.71;83.08;101264.03;4923324;29;20063;-65
2023/07/22 09:21:06;;;;;;;12.70;7.68;;;;;;;19.75;83.13;101261.81;4931189;29;20130;-67
2023/07/22 09:23:38;;;;;;;10.68;7.03;;;;;;;19.80;80.09;101261.22;4923747;29;20127;-67
2023/07/22 09:26:12;;;;;;;11.18;6.93;;;;;;;19.87;81.01;101254.91;4926994;29;20072;-66
2023/07/22 09:28:49;;;;;;;14.30;7.03;;;;;;;19.87;79.48;101249.56;4919607;28;20055;-67
2023/07/22 09:31:16;;;;;;;9.57;5.55;;;;;;;19.86;75.44;101245.28;4929064;29;20057;-69
2023/07/22 09:33:43;;;;;;;11.15;5.50;;;;;;;19.79;74.33;101248.94;4905276;29;20130;-65
2023/07/22 09:36:11;;;;;;;10.52;5.95;;;;;;;19.84;73.16;101259.81;4927532;29;20055;-66
2023/07/22 09:38:37;;;;;;;9.35;5.75;;;;;;;19.83;75.11;101247.50;4924453;29;20135;-66
2023/07/22 09:41:04;;;;;;;9.48;5.18;;;;;;;19.87;75.40;101246.09;4915593;29;20055;-67
2023/07/22 09:43:31;;;;;;;11.25;5.55;;;;;;;19.81;74.26;101242.38;4907184;29;20497;-66
2023/07/22 09:46:07;;;;;;;11.02;5.97;;;;;;;19.89;74.89;101239.56;4919441;29;20056;-67
2023/07/22 09:48:53;;;;;;;11.50;5.95;;;;;;;19.90;74.50;101245.72;4922329;29;20058;-67
2023/07/22 09:51:19;;;;;;;;;;;;;;;20.02;74.75;101238.81;4920000;29;20066;-66
2023/07/22 09:53:48;;;;;;;11.30;5.15;;;;;;;20.25;73.32;101235.00;4926244;29;20291;-68
2023/07/22 09:56:14;;;;;;;;;;;;;;;20.32;70.22;101233.16;4918228;29;20059;-66
2023/07/22 09:58:45;;;;;;;8.98;5.20;;;;;;;20.43;70.31;101242.44;4926387;29;19937;-66
2023/07/22 10:01:14;;;;;;;7.85;4.90;;;;;;;20.50;71.68;101228.09;4923969;29;20696;-67
2023/07/22 10:03:43;;;;;;;10.90;5.10;;;;;;;20.70;73.94;101238.81;4917212;29;20563;-66
2023/07/22 10:06:10;;;;;;;8.98;4.88;;;;;;;20.64;69.66;101239.63;4924884;29;20134;-65
2023/07/22 10:08:37;;;;;;;10.73;4.60;;;;;;;20.85;70.77;101237.78;4910375;29;20154;-67
2023/07/22 10:11:08;;;;;;;9.93;5.30;;;;;;;20.51;68.89;101239.56;4900611;29;20055;-67
2023/07/22 10:13:36;;;;;;;9.85;5.50;;;;;;;20.50;69.08;101245.91;4924327;29;20047;-67
2023/07/22 10:16:03;;;;;;;13.10;5.75;;;;;;;20.39;69.22;101238.53;4922229;29;20126;-68
2023/07/22 10:18:31;;;;;;;15.75;5.90;;;;;;;20.52;70.77;101243.84;4927488;29;20114;-67
2023/07/22 10:20:58;;;;;;;;;;;;;;;20.51;69.79;101247.56;4919828;29;20466;-67
2023/07/22 10:23:26;;;;;;;9.75;5.50;;;;;;;20.55;70.35;101243.47;4921544;29;19935;-68
2023/07/22 10:25:54;;;;;;;8.25;4.90;;;;;;;20.49;68.17;101242.44;4915767;28;20402;-68
2023/07/22 10:28:21;;;;;;;7.28;4.40;;;;;;;20.45;68.71;101238.53;4927314;29;20086;-68
2023/07/22 10:30:48;;;;;;;9.15;4.70;;;;;;;20.61;69.65;101241.88;4922083;29;20134;-66
2023/07/22 10:33:16;;;;;;;11.73;5.15;;;;;;;20.71;68.45;101236.97;4929408;29;20062;-68
2023/07/22 10:36:00;;;;;;;13.35;5.28;;;;;;;20.85;68.15;101238.59;4923003;29;20055;-67
2023/07/22 10:38:27;;;;;;;13.63;5.90;;;;;;;20.96;67.75;101239.03;4909646;29;20060;-68
2023/07/22 10:40:54;;;;;;;11.18;4.72;;;;;;;21.05;66.06;101235.13;4921050;29;20528;-66
2023/07/22 10:43:29;;;;;;;13.68;4.03;;;;;;;21.07;64.89;101233.91;4918613;28;20058;-68
2023/07/22 10:45:58;;;;;;;7.97;4.55;;;;;;;21.14;65.34;101237.38;4924908;29;20059;-67
2023/07/22 10:48:34;;;;;;;8.52;4.78;;;;;;;21.11;63.27;101234.28;4924000;28;20059;-67
2023/07/22 10:51:11;;;;;;;6.43;4.15;;;;;;;21.18;64.51;101220.97;4922724;29;20182;-66
2023/07/22 10:53:44;;;;;;;8.73;4.60;;;;;;;21.23;63.24;101221.16;4930448;29;20055;-71
2023/07/22 10:56:24;;;;;;;8.20;4.93;;;;;;;21.30;63.88;101221.97;4917128;28;20498;-67
2023/07/22 10:58:52;;;;;;;7.53;4.00;;;;;;;21.38;63.98;101228.94;4926752;29;20079;-67
2023/07/22 11:01:27;;;;;;;8.70;4.55;;;;;;;21.26;62.12;101218.91;4924949;28;20068;-68
2023/07/22 11:04:06;;;;;;;10.15;4.60;;;;;;;21.07;60.53;101225.06;4923908;29;20429;-68
2023/07/22 11:06:33;;;;;;;7.63;4.03;;;;;;;20.93;61.34;101222.44;4921761;29;20051;-68
2023/07/22 11:09:00;;;;;;;8.32;4.43;;;;;;;20.90;62.27;101214.00;4929715;29;20767;-67
2023/07/22 11:11:38;;;;;;;8.00;4.03;;;;;;;20.98;62.47;101216.47;4927203;29;20091;-68